sensor_id;sensor_type;location;lat;lon;timestamp;P1;durP1;ratioP1;P2;durP2;ratioP2
54201;SDS011;40108;53.152;5.844;2022-09-09T00:09:35;19.05;;;12.15;;
54201;SDS011;40108;53.152;5.844;2022-09-09T00:12:18;17.60;;;11.15;;
54201;SDS011;40108;53.152;5.844;2022-09-09T00:15:18;16.20;;;11.70;;
54201;SDS011;40108;53.152;5.844;2022-09-09T00:20:45;17.25;;;12.70;;
54201;SDS011;40108;53.152;5.844;2022-09-09T00:23:20;20.58;;;12.15;;
54201;SDS011;40108;53.152;5.844;2022-09-09T00:26:02;18.90;;;12.88;;
54201;SDS011;40108;53.152;5.844;2022-09-09T00:28:46;17.02;;;12.02;;
54201;SDS011;40108;53.152;5.844;2022-09-09T00:31:23;16.00;;;12.40;;
54201;SDS011;40108;53.152;5.844;2022-09-09T00:33:52;13.82;;;11.38;;
54201;SDS011;40108;53.152;5.844;2022-09-09T00:36:21;18.08;;;12.27;;
54201;SDS011;40108;53.152;5.844;2022-09-09T00:38:57;18.52;;;12.80;;
54201;SDS011;40108;53.152;5.844;2022-09-09T00:49:28;19.08;;;12.15;;
54201;SDS011;40108;53.152;5.844;2022-09-09T00:57:25;18.33;;;12.10;;
54201;SDS011;40108;53.152;5.844;2022-09-09T01:05:28;19.38;;;12.20;;
54201;SDS011;40108;53.152;5.844;2022-09-09T01:08:00;19.63;;;12.00;;
54201;SDS011;40108;53.152;5.844;2022-09-09T01:10:30;18.02;;;11.95;;
54201;SDS011;40108;53.152;5.844;2022-09-09T01:13:08;16.80;;;11.40;;
54201;SDS011;40108;53.152;5.844;2022-09-09T01:15:41;19.02;;;12.25;;
54201;SDS011;40108;53.152;5.844;2022-09-09T01:18:12;17.15;;;11.90;;
54201;SDS011;40108;53.152;5.844;2022-09-09T01:23:29;15.95;;;11.45;;
54201;SDS011;40108;53.152;5.844;2022-09-09T01:26:13;16.90;;;11.75;;
54201;SDS011;40108;53.152;5.844;2022-09-09T01:28:46;23.77;;;12.07;;
54201;SDS011;40108;53.152;5.844;2022-09-09T01:31:18;16.30;;;12.02;;
54201;SDS011;40108;53.152;5.844;2022-09-09T01:33:51;15.23;;;10.85;;
54201;SDS011;40108;53.152;5.844;2022-09-09T01:38:56;13.98;;;11.57;;
54201;SDS011;40108;53.152;5.844;2022-09-09T01:41:22;17.70;;;11.68;;
54201;SDS011;40108;53.152;5.844;2022-09-09T01:43:48;21.67;;;11.75;;
54201;SDS011;40108;53.152;5.844;2022-09-09T01:46:15;19.90;;;11.57;;
54201;SDS011;40108;53.152;5.844;2022-09-09T01:48:42;15.73;;;12.30;;
54201;SDS011;40108;53.152;5.844;2022-09-09T01:51:09;19.13;;;12.10;;
54201;SDS011;40108;53.152;5.844;2022-09-09T01:53:35;16.88;;;11.02;;
54201;SDS011;40108;53.152;5.844;2022-09-09T01:59:04;19.10;;;11.70;;
54201;SDS011;40108;53.152;5.844;2022-09-09T02:01:35;16.52;;;11.93;;
54201;SDS011;40108;53.152;5.844;2022-09-09T02:04:35;17.27;;;11.50;;
54201;SDS011;40108;53.152;5.844;2022-09-09T02:07:14;16.95;;;11.70;;
54201;SDS011;40108;53.152;5.844;2022-09-09T02:09:43;20.08;;;11.95;;
54201;SDS011;40108;53.152;5.844;2022-09-09T02:12:16;16.98;;;11.55;;
54201;SDS011;40108;53.152;5.844;2022-09-09T02:14:48;15.80;;;11.32;;
54201;SDS011;40108;53.152;5.844;2022-09-09T02:17:22;19.52;;;11.07;;
54201;SDS011;40108;53.152;5.844;2022-09-09T02:20:27;12.23;;;10.85;;
54201;SDS011;40108;53.152;5.844;2022-09-09T02:22:48;24.30;;;12.50;;
54201;SDS011;40108;53.152;5.844;2022-09-09T02:25:17;16.15;;;11.80;;
54201;SDS011;40108;53.152;5.844;2022-09-09T02:27:46;20.65;;;11.77;;
54201;SDS011;40108;53.152;5.844;2022-09-09T02:30:15;17.38;;;11.85;;
54201;SDS011;40108;53.152;5.844;2022-09-09T02:32:42;20.30;;;12.38;;
54201;SDS011;40108;53.152;5.844;2022-09-09T02:35:10;18.98;;;13.18;;
54201;SDS011;40108;53.152;5.844;2022-09-09T02:37:40;17.70;;;13.15;;
54201;SDS011;40108;53.152;5.844;2022-09-09T02:40:08;18.13;;;12.73;;
54201;SDS011;40108;53.152;5.844;2022-09-09T02:42:43;17.45;;;12.30;;
54201;SDS011;40108;53.152;5.844;2022-09-09T02:45:11;14.38;;;12.60;;
54201;SDS011;40108;53.152;5.844;2022-09-09T02:50:20;19.70;;;13.52;;
54201;SDS011;40108;53.152;5.844;2022-09-09T02:53:02;20.88;;;13.50;;
54201;SDS011;40108;53.152;5.844;2022-09-09T02:55:52;14.35;;;12.50;;
54201;SDS011;40108;53.152;5.844;2022-09-09T02:58:25;15.75;;;12.48;;
54201;SDS011;40108;53.152;5.844;2022-09-09T03:00:51;16.15;;;12.52;;
54201;SDS011;40108;53.152;5.844;2022-09-09T03:03:18;19.50;;;12.68;;
54201;SDS011;40108;53.152;5.844;2022-09-09T03:05:45;17.10;;;12.38;;
54201;SDS011;40108;53.152;5.844;2022-09-09T03:08:11;13.10;;;11.30;;
54201;SDS011;40108;53.152;5.844;2022-09-09T03:10:38;16.15;;;11.43;;
54201;SDS011;40108;53.152;5.844;2022-09-09T03:13:04;17.67;;;12.13;;
54201;SDS011;40108;53.152;5.844;2022-09-09T03:15:31;19.30;;;12.50;;
54201;SDS011;40108;53.152;5.844;2022-09-09T03:17:57;18.15;;;11.70;;
54201;SDS011;40108;53.152;5.844;2022-09-09T03:20:24;18.45;;;11.10;;
54201;SDS011;40108;53.152;5.844;2022-09-09T03:22:52;19.48;;;11.18;;
54201;SDS011;40108;53.152;5.844;2022-09-09T03:25:18;14.90;;;10.20;;
54201;SDS011;40108;53.152;5.844;2022-09-09T03:27:44;14.32;;;10.40;;
54201;SDS011;40108;53.152;5.844;2022-09-09T03:30:10;17.98;;;10.85;;
54201;SDS011;40108;53.152;5.844;2022-09-09T03:32:36;13.57;;;10.38;;
54201;SDS011;40108;53.152;5.844;2022-09-09T03:35:02;14.15;;;10.23;;
54201;SDS011;40108;53.152;5.844;2022-09-09T03:37:28;14.68;;;10.70;;
54201;SDS011;40108;53.152;5.844;2022-09-09T03:39:54;13.60;;;9.77;;
54201;SDS011;40108;53.152;5.844;2022-09-09T03:42:19;15.88;;;9.80;;
54201;SDS011;40108;53.152;5.844;2022-09-09T03:44:47;17.08;;;9.32;;
54201;SDS011;40108;53.152;5.844;2022-09-09T03:47:15;14.20;;;8.85;;
54201;SDS011;40108;53.152;5.844;2022-09-09T03:49:46;11.02;;;8.20;;
54201;SDS011;40108;53.152;5.844;2022-09-09T03:52:13;15.05;;;9.07;;
54201;SDS011;40108;53.152;5.844;2022-09-09T03:54:39;11.52;;;8.43;;
54201;SDS011;40108;53.152;5.844;2022-09-09T03:57:06;9.57;;;7.55;;
54201;SDS011;40108;53.152;5.844;2022-09-09T03:59:32;13.18;;;8.52;;
54201;SDS011;40108;53.152;5.844;2022-09-09T04:01:57;13.85;;;8.07;;
54201;SDS011;40108;53.152;5.844;2022-09-09T04:04:24;9.43;;;7.10;;
54201;SDS011;40108;53.152;5.844;2022-09-09T04:06:51;14.02;;;8.02;;
54201;SDS011;40108;53.152;5.844;2022-09-09T04:09:17;10.45;;;7.15;;
54201;SDS011;40108;53.152;5.844;2022-09-09T04:11:43;10.70;;;7.15;;
54201;SDS011;40108;53.152;5.844;2022-09-09T04:14:09;10.65;;;7.65;;
54201;SDS011;40108;53.152;5.844;2022-09-09T04:16:34;11.23;;;7.55;;
54201;SDS011;40108;53.152;5.844;2022-09-09T04:19:02;15.07;;;8.50;;
54201;SDS011;40108;53.152;5.844;2022-09-09T04:21:29;13.10;;;7.97;;
54201;SDS011;40108;53.152;5.844;2022-09-09T04:23:55;9.63;;;7.55;;
54201;SDS011;40108;53.152;5.844;2022-09-09T04:26:21;11.00;;;7.65;;
54201;SDS011;40108;53.152;5.844;2022-09-09T04:28:47;11.32;;;8.35;;
54201;SDS011;40108;53.152;5.844;2022-09-09T04:31:17;17.20;;;8.38;;
54201;SDS011;40108;53.152;5.844;2022-09-09T04:33:46;12.65;;;8.57;;
54201;SDS011;40108;53.152;5.844;2022-09-09T04:36:12;14.93;;;8.60;;
54201;SDS011;40108;53.152;5.844;2022-09-09T04:38:38;14.07;;;8.82;;
54201;SDS011;40108;53.152;5.844;2022-09-09T04:41:04;12.88;;;8.60;;
54201;SDS011;40108;53.152;5.844;2022-09-09T04:43:30;12.82;;;8.77;;
54201;SDS011;40108;53.152;5.844;2022-09-09T04:45:57;12.00;;;8.52;;
54201;SDS011;40108;53.152;5.844;2022-09-09T04:48:24;10.88;;;8.18;;
54201;SDS011;40108;53.152;5.844;2022-09-09T04:51:00;14.02;;;7.80;;
54201;SDS011;40108;53.152;5.844;2022-09-09T04:53:28;11.88;;;6.80;;
54201;SDS011;40108;53.152;5.844;2022-09-09T04:56:04;12.15;;;7.78;;
54201;SDS011;40108;53.152;5.844;2022-09-09T04:58:32;13.70;;;8.48;;
54201;SDS011;40108;53.152;5.844;2022-09-09T05:01:07;12.77;;;8.02;;
54201;SDS011;40108;53.152;5.844;2022-09-09T05:03:35;13.50;;;8.02;;
54201;SDS011;40108;53.152;5.844;2022-09-09T05:06:08;12.63;;;7.75;;
54201;SDS011;40108;53.152;5.844;2022-09-09T05:08:39;13.43;;;7.68;;
54201;SDS011;40108;53.152;5.844;2022-09-09T05:11:15;12.35;;;7.45;;
54201;SDS011;40108;53.152;5.844;2022-09-09T05:13:48;12.60;;;8.02;;
54201;SDS011;40108;53.152;5.844;2022-09-09T05:16:15;13.43;;;8.00;;
54201;SDS011;40108;53.152;5.844;2022-09-09T05:18:41;13.55;;;8.48;;
54201;SDS011;40108;53.152;5.844;2022-09-09T05:21:08;11.02;;;7.55;;
54201;SDS011;40108;53.152;5.844;2022-09-09T05:23:35;12.57;;;9.05;;
54201;SDS011;40108;53.152;5.844;2022-09-09T05:26:02;17.15;;;9.27;;
54201;SDS011;40108;53.152;5.844;2022-09-09T05:28:28;12.02;;;8.95;;
54201;SDS011;40108;53.152;5.844;2022-09-09T05:30:58;13.10;;;8.55;;
54201;SDS011;40108;53.152;5.844;2022-09-09T05:33:26;13.43;;;8.93;;
54201;SDS011;40108;53.152;5.844;2022-09-09T05:35:59;14.48;;;9.98;;
54201;SDS011;40108;53.152;5.844;2022-09-09T05:38:30;17.67;;;11.02;;
54201;SDS011;40108;53.152;5.844;2022-09-09T05:40:56;14.30;;;10.48;;
54201;SDS011;40108;53.152;5.844;2022-09-09T05:43:22;14.75;;;10.88;;
54201;SDS011;40108;53.152;5.844;2022-09-09T05:45:58;17.92;;;10.43;;
54201;SDS011;40108;53.152;5.844;2022-09-09T05:48:32;14.90;;;10.48;;
54201;SDS011;40108;53.152;5.844;2022-09-09T05:51:00;15.23;;;12.20;;
54201;SDS011;40108;53.152;5.844;2022-09-09T05:53:27;17.80;;;12.05;;
54201;SDS011;40108;53.152;5.844;2022-09-09T05:56:07;18.02;;;12.85;;
54201;SDS011;40108;53.152;5.844;2022-09-09T05:58:39;17.35;;;12.18;;
54201;SDS011;40108;53.152;5.844;2022-09-09T06:03:33;16.33;;;12.25;;
54201;SDS011;40108;53.152;5.844;2022-09-09T06:06:01;20.30;;;13.50;;
54201;SDS011;40108;53.152;5.844;2022-09-09T06:08:30;17.27;;;12.40;;
54201;SDS011;40108;53.152;5.844;2022-09-09T06:11:01;19.73;;;13.50;;
54201;SDS011;40108;53.152;5.844;2022-09-09T06:13:28;14.00;;;10.85;;
54201;SDS011;40108;53.152;5.844;2022-09-09T06:15:54;19.00;;;11.20;;
54201;SDS011;40108;53.152;5.844;2022-09-09T06:18:20;19.48;;;12.88;;
54201;SDS011;40108;53.152;5.844;2022-09-09T06:23:42;16.45;;;12.75;;
54201;SDS011;40108;53.152;5.844;2022-09-09T06:26:12;16.42;;;12.35;;
54201;SDS011;40108;53.152;5.844;2022-09-09T06:28:48;16.75;;;11.88;;
54201;SDS011;40108;53.152;5.844;2022-09-09T06:31:17;17.27;;;12.52;;
54201;SDS011;40108;53.152;5.844;2022-09-09T06:33:47;16.45;;;12.95;;
54201;SDS011;40108;53.152;5.844;2022-09-09T06:36:24;15.63;;;12.05;;
54201;SDS011;40108;53.152;5.844;2022-09-09T06:38:51;18.70;;;12.40;;
54201;SDS011;40108;53.152;5.844;2022-09-09T06:41:17;20.40;;;11.85;;
54201;SDS011;40108;53.152;5.844;2022-09-09T06:43:45;15.02;;;11.32;;
54201;SDS011;40108;53.152;5.844;2022-09-09T06:46:13;13.07;;;10.15;;
54201;SDS011;40108;53.152;5.844;2022-09-09T06:48:39;14.32;;;11.45;;
54201;SDS011;40108;53.152;5.844;2022-09-09T06:53:36;17.02;;;12.07;;
54201;SDS011;40108;53.152;5.844;2022-09-09T06:58:35;23.98;;;12.18;;
54201;SDS011;40108;53.152;5.844;2022-09-09T07:01:10;17.60;;;11.75;;
54201;SDS011;40108;53.152;5.844;2022-09-09T07:03:38;16.63;;;11.45;;
54201;SDS011;40108;53.152;5.844;2022-09-09T07:06:04;14.55;;;11.30;;
54201;SDS011;40108;53.152;5.844;2022-09-09T07:08:31;15.63;;;10.82;;
54201;SDS011;40108;53.152;5.844;2022-09-09T07:11:06;13.50;;;10.05;;
54201;SDS011;40108;53.152;5.844;2022-09-09T07:13:33;16.85;;;10.38;;
54201;SDS011;40108;53.152;5.844;2022-09-09T07:16:06;12.88;;;9.48;;
54201;SDS011;40108;53.152;5.844;2022-09-09T07:18:33;14.93;;;10.38;;
54201;SDS011;40108;53.152;5.844;2022-09-09T07:21:00;12.50;;;8.68;;
54201;SDS011;40108;53.152;5.844;2022-09-09T07:23:27;16.13;;;9.95;;
54201;SDS011;40108;53.152;5.844;2022-09-09T07:25:53;17.38;;;10.77;;
54201;SDS011;40108;53.152;5.844;2022-09-09T07:28:19;16.80;;;10.68;;
54201;SDS011;40108;53.152;5.844;2022-09-09T07:30:54;13.65;;;9.13;;
54201;SDS011;40108;53.152;5.844;2022-09-09T07:33:21;12.45;;;9.27;;
54201;SDS011;40108;53.152;5.844;2022-09-09T07:35:47;13.73;;;9.48;;
54201;SDS011;40108;53.152;5.844;2022-09-09T07:38:14;12.85;;;8.50;;
54201;SDS011;40108;53.152;5.844;2022-09-09T07:40:40;11.18;;;8.40;;
54201;SDS011;40108;53.152;5.844;2022-09-09T07:43:06;9.60;;;8.05;;
54201;SDS011;40108;53.152;5.844;2022-09-09T07:45:33;10.38;;;7.55;;
54201;SDS011;40108;53.152;5.844;2022-09-09T07:47:59;11.57;;;8.13;;
54201;SDS011;40108;53.152;5.844;2022-09-09T07:50:25;14.13;;;8.50;;
54201;SDS011;40108;53.152;5.844;2022-09-09T07:52:52;10.85;;;8.50;;
54201;SDS011;40108;53.152;5.844;2022-09-09T07:55:18;11.98;;;7.07;;
54201;SDS011;40108;53.152;5.844;2022-09-09T07:57:45;9.52;;;6.55;;
54201;SDS011;40108;53.152;5.844;2022-09-09T08:00:12;10.95;;;7.50;;
54201;SDS011;40108;53.152;5.844;2022-09-09T08:02:39;11.48;;;7.68;;
54201;SDS011;40108;53.152;5.844;2022-09-09T08:05:05;9.85;;;6.78;;
54201;SDS011;40108;53.152;5.844;2022-09-09T08:07:31;10.00;;;7.00;;
54201;SDS011;40108;53.152;5.844;2022-09-09T08:09:57;12.02;;;6.60;;
54201;SDS011;40108;53.152;5.844;2022-09-09T08:12:23;9.48;;;7.05;;
54201;SDS011;40108;53.152;5.844;2022-09-09T08:14:49;8.02;;;5.50;;
54201;SDS011;40108;53.152;5.844;2022-09-09T08:17:14;12.20;;;5.72;;
54201;SDS011;40108;53.152;5.844;2022-09-09T08:19:40;10.27;;;5.63;;
54201;SDS011;40108;53.152;5.844;2022-09-09T08:22:06;10.93;;;6.22;;
54201;SDS011;40108;53.152;5.844;2022-09-09T08:24:32;8.45;;;6.15;;
54201;SDS011;40108;53.152;5.844;2022-09-09T08:26:58;12.32;;;6.50;;
54201;SDS011;40108;53.152;5.844;2022-09-09T08:29:24;9.43;;;6.25;;
54201;SDS011;40108;53.152;5.844;2022-09-09T08:31:53;8.68;;;5.35;;
54201;SDS011;40108;53.152;5.844;2022-09-09T08:36:48;11.70;;;4.82;;
54201;SDS011;40108;53.152;5.844;2022-09-09T08:39:16;9.90;;;4.40;;
54201;SDS011;40108;53.152;5.844;2022-09-09T08:50:02;12.23;;;4.45;;
54201;SDS011;40108;53.152;5.844;2022-09-09T08:58:17;8.15;;;3.17;;
54201;SDS011;40108;53.152;5.844;2022-09-09T09:00:51;9.35;;;3.33;;
54201;SDS011;40108;53.152;5.844;2022-09-09T09:03:31;9.02;;;3.03;;
54201;SDS011;40108;53.152;5.844;2022-09-09T09:11:54;10.10;;;3.08;;
54201;SDS011;40108;53.152;5.844;2022-09-09T09:14:26;8.48;;;3.30;;
54201;SDS011;40108;53.152;5.844;2022-09-09T09:19:28;9.98;;;3.80;;
54201;SDS011;40108;53.152;5.844;2022-09-09T09:22:10;8.68;;;3.75;;
54201;SDS011;40108;53.152;5.844;2022-09-09T09:24:51;13.43;;;3.67;;
54201;SDS011;40108;53.152;5.844;2022-09-09T09:30:14;6.65;;;2.83;;
54201;SDS011;40108;53.152;5.844;2022-09-09T09:32:43;10.43;;;3.45;;
54201;SDS011;40108;53.152;5.844;2022-09-09T09:35:25;7.38;;;2.80;;
54201;SDS011;40108;53.152;5.844;2022-09-09T09:37:51;8.38;;;3.20;;
54201;SDS011;40108;53.152;5.844;2022-09-09T09:40:18;7.88;;;2.60;;
54201;SDS011;40108;53.152;5.844;2022-09-09T09:42:50;8.93;;;3.03;;
54201;SDS011;40108;53.152;5.844;2022-09-09T09:45:43;12.27;;;3.10;;
54201;SDS011;40108;53.152;5.844;2022-09-09T09:48:13;6.30;;;2.30;;
54201;SDS011;40108;53.152;5.844;2022-09-09T09:50:46;8.02;;;2.55;;
54201;SDS011;40108;53.152;5.844;2022-09-09T09:53:20;6.20;;;1.98;;
54201;SDS011;40108;53.152;5.844;2022-09-09T09:55:50;8.18;;;2.00;;
54201;SDS011;40108;53.152;5.844;2022-09-09T09:58:22;7.47;;;2.80;;
54201;SDS011;40108;53.152;5.844;2022-09-09T10:00:50;5.53;;;1.70;;
54201;SDS011;40108;53.152;5.844;2022-09-09T10:03:27;5.82;;;1.70;;
54201;SDS011;40108;53.152;5.844;2022-09-09T10:05:54;9.48;;;1.88;;
54201;SDS011;40108;53.152;5.844;2022-09-09T10:08:21;4.15;;;1.30;;
54201;SDS011;40108;53.152;5.844;2022-09-09T10:16:23;13.75;;;1.92;;
54201;SDS011;40108;53.152;5.844;2022-09-09T10:19:04;11.73;;;1.85;;
54201;SDS011;40108;53.152;5.844;2022-09-09T10:29:40;6.65;;;1.50;;
54201;SDS011;40108;53.152;5.844;2022-09-09T10:43:31;6.82;;;1.50;;
54201;SDS011;40108;53.152;5.844;2022-09-09T10:57:45;6.35;;;1.48;;
54201;SDS011;40108;53.152;5.844;2022-09-09T11:02:53;7.13;;;1.30;;
54201;SDS011;40108;53.152;5.844;2022-09-09T11:05:42;4.60;;;1.33;;
54201;SDS011;40108;53.152;5.844;2022-09-09T11:08:21;5.38;;;1.15;;
54201;SDS011;40108;53.152;5.844;2022-09-09T11:13:23;3.67;;;0.90;;
54201;SDS011;40108;53.152;5.844;2022-09-09T11:22:07;3.17;;;1.20;;
54201;SDS011;40108;53.152;5.844;2022-09-09T11:24:40;5.25;;;1.33;;
54201;SDS011;40108;53.152;5.844;2022-09-09T11:32:46;5.50;;;1.13;;
54201;SDS011;40108;53.152;5.844;2022-09-09T11:35:31;9.45;;;1.27;;
54201;SDS011;40108;53.152;5.844;2022-09-09T11:41:16;9.52;;;1.63;;
54201;SDS011;40108;53.152;5.844;2022-09-09T11:43:49;7.18;;;1.52;;
54201;SDS011;40108;53.152;5.844;2022-09-09T11:46:17;3.85;;;1.33;;
54201;SDS011;40108;53.152;5.844;2022-09-09T11:49:04;5.63;;;1.30;;
54201;SDS011;40108;53.152;5.844;2022-09-09T11:51:47;5.60;;;2.05;;
54201;SDS011;40108;53.152;5.844;2022-09-09T11:54:32;7.40;;;1.38;;
54201;SDS011;40108;53.152;5.844;2022-09-09T12:00:03;5.80;;;1.73;;
54201;SDS011;40108;53.152;5.844;2022-09-09T12:02:29;6.15;;;1.33;;
54201;SDS011;40108;53.152;5.844;2022-09-09T12:05:02;6.50;;;1.65;;
54201;SDS011;40108;53.152;5.844;2022-09-09T12:10:38;6.60;;;1.70;;
54201;SDS011;40108;53.152;5.844;2022-09-09T12:13:18;8.32;;;1.63;;
54201;SDS011;40108;53.152;5.844;2022-09-09T12:15:49;5.47;;;1.38;;
54201;SDS011;40108;53.152;5.844;2022-09-09T12:18:22;6.15;;;1.50;;
54201;SDS011;40108;53.152;5.844;2022-09-09T12:31:29;8.00;;;1.52;;
54201;SDS011;40108;53.152;5.844;2022-09-09T12:34:20;6.63;;;1.95;;
54201;SDS011;40108;53.152;5.844;2022-09-09T12:36:52;14.00;;;2.15;;
54201;SDS011;40108;53.152;5.844;2022-09-09T12:39:25;9.73;;;1.85;;
54201;SDS011;40108;53.152;5.844;2022-09-09T12:41:59;7.22;;;1.55;;
54201;SDS011;40108;53.152;5.844;2022-09-09T12:44:25;7.03;;;1.92;;
54201;SDS011;40108;53.152;5.844;2022-09-09T12:46:54;7.88;;;1.80;;
54201;SDS011;40108;53.152;5.844;2022-09-09T12:49:29;7.47;;;1.80;;
54201;SDS011;40108;53.152;5.844;2022-09-09T12:52:04;5.30;;;1.63;;
54201;SDS011;40108;53.152;5.844;2022-09-09T12:54:35;7.63;;;1.65;;
54201;SDS011;40108;53.152;5.844;2022-09-09T12:57:02;8.65;;;1.83;;
54201;SDS011;40108;53.152;5.844;2022-09-09T12:59:36;5.07;;;1.63;;
54201;SDS011;40108;53.152;5.844;2022-09-09T13:02:25;6.57;;;1.48;;
54201;SDS011;40108;53.152;5.844;2022-09-09T13:04:51;8.60;;;2.05;;
54201;SDS011;40108;53.152;5.844;2022-09-09T13:07:19;7.07;;;1.70;;
54201;SDS011;40108;53.152;5.844;2022-09-09T13:09:47;6.65;;;1.65;;
54201;SDS011;40108;53.152;5.844;2022-09-09T13:12:20;7.13;;;1.40;;
54201;SDS011;40108;53.152;5.844;2022-09-09T13:14:53;6.45;;;1.50;;
54201;SDS011;40108;53.152;5.844;2022-09-09T13:17:22;4.50;;;1.08;;
54201;SDS011;40108;53.152;5.844;2022-09-09T13:19:51;4.15;;;0.90;;
54201;SDS011;40108;53.152;5.844;2022-09-09T13:22:39;4.57;;;1.15;;
54201;SDS011;40108;53.152;5.844;2022-09-09T13:25:16;3.88;;;1.10;;
54201;SDS011;40108;53.152;5.844;2022-09-09T13:27:57;6.97;;;1.30;;
54201;SDS011;40108;53.152;5.844;2022-09-09T13:30:34;6.15;;;1.48;;
54201;SDS011;40108;53.152;5.844;2022-09-09T13:35:34;5.63;;;1.45;;
54201;SDS011;40108;53.152;5.844;2022-09-09T13:38:12;6.07;;;1.15;;
54201;SDS011;40108;53.152;5.844;2022-09-09T13:43:46;4.25;;;1.35;;
54201;SDS011;40108;53.152;5.844;2022-09-09T13:46:46;6.00;;;1.40;;
54201;SDS011;40108;53.152;5.844;2022-09-09T13:51:41;3.83;;;1.67;;
54201;SDS011;40108;53.152;5.844;2022-09-09T13:54:11;5.60;;;1.70;;
54201;SDS011;40108;53.152;5.844;2022-09-09T13:56:38;6.63;;;1.90;;
54201;SDS011;40108;53.152;5.844;2022-09-09T13:59:05;8.20;;;1.88;;
54201;SDS011;40108;53.152;5.844;2022-09-09T14:01:34;4.53;;;1.30;;
54201;SDS011;40108;53.152;5.844;2022-09-09T14:04:00;7.53;;;1.58;;
54201;SDS011;40108;53.152;5.844;2022-09-09T14:06:26;7.30;;;1.83;;
54201;SDS011;40108;53.152;5.844;2022-09-09T14:08:52;3.85;;;1.30;;
54201;SDS011;40108;53.152;5.844;2022-09-09T14:11:19;5.68;;;1.60;;
54201;SDS011;40108;53.152;5.844;2022-09-09T14:13:46;5.05;;;1.40;;
54201;SDS011;40108;53.152;5.844;2022-09-09T14:16:15;7.60;;;1.60;;
54201;SDS011;40108;53.152;5.844;2022-09-09T14:18:41;3.83;;;1.65;;
54201;SDS011;40108;53.152;5.844;2022-09-09T14:21:07;5.78;;;1.58;;
54201;SDS011;40108;53.152;5.844;2022-09-09T14:23:33;4.65;;;1.45;;
54201;SDS011;40108;53.152;5.844;2022-09-09T14:25:59;4.28;;;1.70;;
54201;SDS011;40108;53.152;5.844;2022-09-09T14:28:25;6.03;;;1.50;;
54201;SDS011;40108;53.152;5.844;2022-09-09T14:30:50;3.80;;;1.65;;
54201;SDS011;40108;53.152;5.844;2022-09-09T14:33:16;4.78;;;1.40;;
54201;SDS011;40108;53.152;5.844;2022-09-09T14:35:42;4.47;;;1.20;;
54201;SDS011;40108;53.152;5.844;2022-09-09T14:38:09;4.55;;;1.40;;
54201;SDS011;40108;53.152;5.844;2022-09-09T14:40:35;5.10;;;1.10;;
54201;SDS011;40108;53.152;5.844;2022-09-09T14:43:02;4.05;;;1.17;;
54201;SDS011;40108;53.152;5.844;2022-09-09T14:45:28;6.75;;;1.60;;
54201;SDS011;40108;53.152;5.844;2022-09-09T14:47:54;2.83;;;1.00;;
54201;SDS011;40108;53.152;5.844;2022-09-09T14:50:21;4.18;;;1.20;;
54201;SDS011;40108;53.152;5.844;2022-09-09T14:52:47;4.93;;;1.30;;
54201;SDS011;40108;53.152;5.844;2022-09-09T14:55:13;5.18;;;1.90;;
54201;SDS011;40108;53.152;5.844;2022-09-09T14:57:40;5.13;;;1.83;;
54201;SDS011;40108;53.152;5.844;2022-09-09T15:00:07;4.70;;;1.40;;
54201;SDS011;40108;53.152;5.844;2022-09-09T15:02:33;6.38;;;1.30;;
54201;SDS011;40108;53.152;5.844;2022-09-09T15:04:59;7.05;;;2.03;;
54201;SDS011;40108;53.152;5.844;2022-09-09T15:07:26;9.25;;;2.05;;
54201;SDS011;40108;53.152;5.844;2022-09-09T15:09:53;12.70;;;4.00;;
54201;SDS011;40108;53.152;5.844;2022-09-09T15:12:19;8.27;;;2.13;;
54201;SDS011;40108;53.152;5.844;2022-09-09T15:14:45;5.35;;;2.90;;
54201;SDS011;40108;53.152;5.844;2022-09-09T15:17:11;10.80;;;3.70;;
54201;SDS011;40108;53.152;5.844;2022-09-09T15:19:38;7.25;;;3.92;;
54201;SDS011;40108;53.152;5.844;2022-09-09T15:22:04;5.90;;;3.42;;
54201;SDS011;40108;53.152;5.844;2022-09-09T15:24:33;8.48;;;3.97;;
54201;SDS011;40108;53.152;5.844;2022-09-09T15:26:59;7.47;;;3.97;;
54201;SDS011;40108;53.152;5.844;2022-09-09T15:29:26;10.43;;;3.92;;
54201;SDS011;40108;53.152;5.844;2022-09-09T15:31:53;9.25;;;4.57;;
54201;SDS011;40108;53.152;5.844;2022-09-09T15:34:19;8.85;;;5.07;;
54201;SDS011;40108;53.152;5.844;2022-09-09T15:36:45;10.73;;;4.57;;
54201;SDS011;40108;53.152;5.844;2022-09-09T15:39:13;10.80;;;6.00;;
54201;SDS011;40108;53.152;5.844;2022-09-09T15:41:41;9.85;;;5.60;;
54201;SDS011;40108;53.152;5.844;2022-09-09T15:44:12;9.57;;;5.72;;
54201;SDS011;40108;53.152;5.844;2022-09-09T15:46:39;7.38;;;5.28;;
54201;SDS011;40108;53.152;5.844;2022-09-09T15:49:17;7.80;;;5.53;;
54201;SDS011;40108;53.152;5.844;2022-09-09T15:51:45;7.93;;;4.93;;
54201;SDS011;40108;53.152;5.844;2022-09-09T15:54:13;9.63;;;4.88;;
54201;SDS011;40108;53.152;5.844;2022-09-09T15:56:43;9.60;;;5.43;;
54201;SDS011;40108;53.152;5.844;2022-09-09T15:59:10;9.05;;;5.10;;
54201;SDS011;40108;53.152;5.844;2022-09-09T16:01:36;8.02;;;4.40;;
54201;SDS011;40108;53.152;5.844;2022-09-09T16:04:04;7.22;;;4.03;;
54201;SDS011;40108;53.152;5.844;2022-09-09T16:06:30;7.82;;;3.60;;
54201;SDS011;40108;53.152;5.844;2022-09-09T16:08:57;7.93;;;3.88;;
54201;SDS011;40108;53.152;5.844;2022-09-09T16:11:36;4.72;;;3.88;;
54201;SDS011;40108;53.152;5.844;2022-09-09T16:14:03;5.28;;;3.28;;
54201;SDS011;40108;53.152;5.844;2022-09-09T16:16:30;5.57;;;3.38;;
54201;SDS011;40108;53.152;5.844;2022-09-09T16:18:59;7.75;;;3.53;;
54201;SDS011;40108;53.152;5.844;2022-09-09T16:21:38;8.13;;;3.83;;
54201;SDS011;40108;53.152;5.844;2022-09-09T16:24:06;7.97;;;3.80;;
54201;SDS011;40108;53.152;5.844;2022-09-09T16:26:35;9.48;;;4.32;;
54201;SDS011;40108;53.152;5.844;2022-09-09T16:29:02;10.27;;;5.95;;
54201;SDS011;40108;53.152;5.844;2022-09-09T16:31:29;7.97;;;4.68;;
54201;SDS011;40108;53.152;5.844;2022-09-09T16:33:57;7.40;;;3.95;;
54201;SDS011;40108;53.152;5.844;2022-09-09T16:36:27;7.28;;;4.35;;
54201;SDS011;40108;53.152;5.844;2022-09-09T16:38:59;8.02;;;4.22;;
54201;SDS011;40108;53.152;5.844;2022-09-09T16:41:27;11.20;;;4.30;;
54201;SDS011;40108;53.152;5.844;2022-09-09T16:43:57;7.05;;;4.38;;
54201;SDS011;40108;53.152;5.844;2022-09-09T16:46:25;7.88;;;4.57;;
54201;SDS011;40108;53.152;5.844;2022-09-09T16:48:52;8.02;;;4.18;;
54201;SDS011;40108;53.152;5.844;2022-09-09T16:51:21;11.68;;;5.78;;
54201;SDS011;40108;53.152;5.844;2022-09-09T16:53:52;7.72;;;4.80;;
54201;SDS011;40108;53.152;5.844;2022-09-09T16:56:19;8.60;;;4.45;;
54201;SDS011;40108;53.152;5.844;2022-09-09T16:58:50;6.13;;;4.05;;
54201;SDS011;40108;53.152;5.844;2022-09-09T17:01:21;6.60;;;4.20;;
54201;SDS011;40108;53.152;5.844;2022-09-09T17:03:51;8.90;;;4.50;;
54201;SDS011;40108;53.152;5.844;2022-09-09T17:06:27;9.07;;;5.40;;
54201;SDS011;40108;53.152;5.844;2022-09-09T17:08:55;9.38;;;5.60;;
54201;SDS011;40108;53.152;5.844;2022-09-09T17:11:22;7.78;;;2.97;;
54201;SDS011;40108;53.152;5.844;2022-09-09T17:13:48;3.72;;;1.70;;
54201;SDS011;40108;53.152;5.844;2022-09-09T17:16:16;3.17;;;1.63;;
54201;SDS011;40108;53.152;5.844;2022-09-09T17:18:43;4.47;;;1.70;;
54201;SDS011;40108;53.152;5.844;2022-09-09T17:21:11;4.65;;;1.75;;
54201;SDS011;40108;53.152;5.844;2022-09-09T17:23:39;4.60;;;2.78;;
54201;SDS011;40108;53.152;5.844;2022-09-09T17:26:06;8.43;;;4.13;;
54201;SDS011;40108;53.152;5.844;2022-09-09T17:28:35;7.00;;;4.55;;
54201;SDS011;40108;53.152;5.844;2022-09-09T17:31:04;7.93;;;4.45;;
54201;SDS011;40108;53.152;5.844;2022-09-09T17:33:32;8.73;;;4.80;;